Time,TemperatureF,DewpointF,PressureIn,WindDirection,WindDirectionDegrees,WindSpeedMPH,WindSpeedGustMPH,Humidity,HourlyPrecipIn,Conditions,Clouds,dailyrainin,SolarRadiationWatts/m^2,SoftwareType,DateUTC
2013-02-25 00:03:00,44.1,20.7,30.19,WNW,286,1.0,4.0,39,0.00,,,0.00,0,HR-IXPWINDi_r2_v1.2.,2013-02-25 08:03:00,
2013-02-25 00:08:00,43.1,23.2,30.19,WNW,286,0.0,4.0,45,0.00,,,0.00,0,HR-IXPWINDi_r2_v1.2.,2013-02-25 08:08:00,
2013-02-25 00:13:00,42.5,22.1,30.20,WSW,255,3.0,3.0,44,0.00,,,0.00,0,HR-IXPWINDi_r2_v1.2.,2013-02-25 08:13:00,
2013-02-25 00:18:00,43.2,21.7,30.20,NW,315,2.0,4.0,42,0.00,,,0.00,0,HR-IXPWINDi_r2_v1.2.,2013-02-25 08:18:00,
2013-02-25 00:23:00,42.7,22.8,30.20,North,5,2.0,4.0,45,0.00,,,0.00,0,HR-IXPWINDi_r2_v1.2.,2013-02-25 08:23:00,
2013-02-25 00:28:00,43.0,22.6,30.20,NNW,334,2.0,4.0,44,0.00,,,0.00,0,HR-IXPWINDi_r2_v1.2.,2013-02-25 08:28:00,
2013-02-25 00:34:00,43.1,21.6,30.20,NW,311,4.0,5.0,42,0.00,,,0.00,0,HR-IXPWINDi_r2_v1.2.,2013-02-25 08:34:00,
2013-02-25 00:39:00,44.5,21.7,30.19,NW,322,3.0,6.0,40,0.00,,,0.00,0,HR-IXPWINDi_r2_v1.2.,2013-02-25 08:39:00,
2013-02-25 00:44:00,45.2,20.5,30.19,NW,306,4.0,6.0,37,0.00,,,0.00,0,HR-IXPWINDi_r2_v1.2.,2013-02-25 08:44:00,
2013-02-25 00:49:00,47.7,19.3,30.19,WNW,302,4.0,7.0,32,0.00,,,0.00,0,HR-IXPWINDi_r2_v1.2.,2013-02-25 08:49:00,
2013-02-25 00:54:00,48.4,20.6,30.20,South,175,0.0,7.0,33,0.00,,,0.00,0,HR-IXPWINDi_r2_v1.2.,2013-02-25 08:54:00,
2013-02-25 01:00:00,46.2,19.4,30.20,South,175,0.0,7.0,34,0.00,,,0.00,0,HR-IXPWINDi_r2_v1.2.,2013-02-25 09:00:00,
2013-02-25 01:05:00,46.1,18.6,30.20,WNW,283,5.0,8.0,33,0.00,,,0.00,0,HR-IXPWINDi_r2_v1.2.,2013-02-25 09:05:00,
2013-02-25 01:10:00,46.7,19.1,30.20,NNW,338,2.0,8.0,33,0.00,,,0.00,0,HR-IXPWINDi_r2_v1.2.,2013-02-25 09:10:00,
2013-02-25 01:15:00,46.1,19.3,30.20,SSW,203,2.0,7.0,34,0.00,,,0.00,0,HR-IXPWINDi_r2_v1.2.,2013-02-25 09:15:00,
2013-02-25 01:20:00,45.4,18.7,30.20,SSW,196,0.0,4.0,34,0.00,,,0.00,0,HR-IXPWINDi_r2_v1.2.,2013-02-25 09:20:00,
2013-02-25 01:26:00,45.0,19.7,30.20,SSW,196,2.0,4.0,36,0.00,,,0.00,0,HR-IXPWINDi_r2_v1.2.,2013-02-25 09:26:00,
2013-02-25 01:31:00,43.7,22.1,30.20,NE,55,2.0,3.0,42,0.00,,,0.00,0,HR-IXPWINDi_r2_v1.2.,2013-02-25 09:31:00,
2013-02-25 01:36:00,42.9,19.6,30.20,WNW,290,1.0,4.0,39,0.00,,,0.00,0,HR-IXPWINDi_r2_v1.2.,2013-02-25 09:36:00,
2013-02-25 01:42:00,43.4,18.9,30.20,WNW,290,1.0,4.0,37,0.00,,,0.00,0,HR-IXPWINDi_r2_v1.2.,2013-02-25 09:42:00,
2013-02-25 01:47:00,42.2,21.3,30.20,WNW,290,0.0,2.0,43,0.00,,,0.00,0,HR-IXPWINDi_r2_v1.2.,2013-02-25 09:47:00,
2013-02-25 01:52:00,41.3,20.5,30.20,WNW,290,0.0,2.0,43,0.00,,,0.00,0,HR-IXPWINDi_r2_v1.2.,2013-02-25 09:52:00,
2013-02-25 01:57:00,40.5,21.9,30.20,West,277,3.0,4.0,47,0.00,,,0.00,0,HR-IXPWINDi_r2_v1.2.,2013-02-25 09:57:00,
2013-02-25 02:02:00,40.8,20.6,30.20,WNW,283,0.0,4.0,44,0.00,,,0.00,0,HR-IXPWINDi_r2_v1.2.,2013-02-25 10:02:00,
2013-02-25 02:07:00,39.9,22.3,30.19,NW,310,3.0,4.0,49,0.00,,,0.00,0,HR-IXPWINDi_r2_v1.2.,2013-02-25 10:07:00,
2013-02-25 02:12:00,39.5,22.4,30.19,NW,311,0.0,3.0,50,0.00,,,0.00,0,HR-IXPWINDi_r2_v1.2.,2013-02-25 10:12:00,
2013-02-25 02:17:00,38.7,23.5,30.19,NW,311,2.0,3.0,54,0.00,,,0.00,0,HR-IXPWINDi_r2_v1.2.,2013-02-25 10:17:00,
2013-02-25 02:23:00,38.3,24.4,30.19,NW,311,0.0,3.0,57,0.00,,,0.00,0,HR-IXPWINDi_r2_v1.2.,2013-02-25 10:23:00,
2013-02-25 02:28:00,37.5,23.2,30.19,NW,317,2.0,3.0,56,0.00,,,0.00,0,HR-IXPWINDi_r2_v1.2.,2013-02-25 10:28:00,
2013-02-25 02:33:00,37.4,24.0,30.19,NW,317,0.0,3.0,58,0.00,,,0.00,0,HR-IXPWINDi_r2_v1.2.,2013-02-25 10:33:00,
2013-02-25 02:38:00,37.0,24.0,30.19,NW,317,0.0,3.0,59,0.00,,,0.00,0,HR-IXPWINDi_r2_v1.2.,2013-02-25 10:38:00,
2013-02-25 02:43:00,37.0,23.2,30.19,NW,317,2.0,3.0,57,0.00,,,0.00,0,HR-IXPWINDi_r2_v1.2.,2013-02-25 10:43:00,
2013-02-25 02:48:00,37.1,23.3,30.19,NW,317,1.0,3.0,57,0.00,,,0.00,0,HR-IXPWINDi_r2_v1.2.,2013-02-25 10:48:00,
2013-02-25 02:54:00,36.5,23.5,30.19,NW,317,0.0,2.0,59,0.00,,,0.00,0,HR-IXPWINDi_r2_v1.2.,2013-02-25 10:54:00,
2013-02-25 02:59:00,36.4,23.4,30.19,NW,309,0.0,3.0,59,0.00,,,0.00,0,HR-IXPWINDi_r2_v1.2.,2013-02-25 10:59:00,
2013-02-25 03:04:00,36.1,23.9,30.19,NW,309,1.0,3.0,61,0.00,,,0.00,0,HR-IXPWINDi_r2_v1.2.,2013-02-25 11:04:00,
2013-02-25 03:09:00,35.8,23.7,30.19,NW,309,2.0,3.0,61,0.00,,,0.00,0,HR-IXPWINDi_r2_v1.2.,2013-02-25 11:09:00,
2013-02-25 03:15:00,36.1,23.6,30.18,NW,309,1.0,3.0,60,0.00,,,0.00,0,HR-IXPWINDi_r2_v1.2.,2013-02-25 11:15:00,
2013-02-25 03:20:00,35.9,23.4,30.19,NW,309,1.0,2.0,60,0.00,,,0.00,0,HR-IXPWINDi_r2_v1.2.,2013-02-25 11:20:00,
2013-02-25 03:25:00,35.8,24.4,30.18,NW,309,1.0,2.0,63,0.00,,,0.00,0,HR-IXPWINDi_r2_v1.2.,2013-02-25 11:25:00,
2013-02-25 03:30:00,35.5,23.8,30.19,NW,309,1.0,2.0,62,0.00,,,0.00,0,HR-IXPWINDi_r2_v1.2.,2013-02-25 11:30:00,
2013-02-25 03:35:00,35.1,23.4,30.18,NW,309,2.0,2.0,62,0.00,,,0.00,0,HR-IXPWINDi_r2_v1.2.,2013-02-25 11:35:00,
2013-02-25 03:41:00,35.6,23.1,30.18,NW,309,1.0,3.0,60,0.00,,,0.00,0,HR-IXPWINDi_r2_v1.2.,2013-02-25 11:41:00,
2013-02-25 03:46:00,35.8,22.9,30.18,NW,309,1.0,3.0,59,0.00,,,0.00,0,HR-IXPWINDi_r2_v1.2.,2013-02-25 11:46:00,
2013-02-25 03:51:00,35.9,24.1,30.18,NW,309,3.0,3.0,62,0.00,,,0.00,0,HR-IXPWINDi_r2_v1.2.,2013-02-25 11:51:00,
2013-02-25 03:56:00,35.4,23.7,30.18,NW,310,2.0,3.0,62,0.00,,,0.00,0,HR-IXPWINDi_r2_v1.2.,2013-02-25 11:56:00,
2013-02-25 04:02:00,35.3,23.6,30.18,NW,322,1.0,3.0,62,0.00,,,0.00,0,HR-IXPWINDi_r2_v1.2.,2013-02-25 12:02:00,
2013-02-25 04:07:00,34.9,23.2,30.18,NW,322,0.0,3.0,62,0.00,,,0.00,0,HR-IXPWINDi_r2_v1.2.,2013-02-25 12:07:00,
2013-02-25 04:12:00,34.5,23.6,30.18,NW,322,0.0,2.0,64,0.00,,,0.00,0,HR-IXPWINDi_r2_v1.2.,2013-02-25 12:12:00,
2013-02-25 04:17:00,34.7,23.4,30.19,NW,322,0.0,2.0,63,0.00,,,0.00,0,HR-IXPWINDi_r2_v1.2.,2013-02-25 12:17:00,
2013-02-25 04:22:00,35.2,23.5,30.19,NW,322,1.0,2.0,62,0.00,,,0.00,0,HR-IXPWINDi_r2_v1.2.,2013-02-25 12:22:00,
2013-02-25 04:28:00,34.7,23.8,30.19,NW,323,1.0,3.0,64,0.00,,,0.00,0,HR-IXPWINDi_r2_v1.2.,2013-02-25 12:28:00,
2013-02-25 04:33:00,34.4,24.2,30.19,NW,323,1.0,3.0,66,0.00,,,0.00,0,HR-IXPWINDi_r2_v1.2.,2013-02-25 12:33:00,
2013-02-25 04:38:00,34.0,24.2,30.19,NW,323,1.0,3.0,67,0.00,,,0.00,0,HR-IXPWINDi_r2_v1.2.,2013-02-25 12:38:00,
2013-02-25 04:43:00,33.7,24.3,30.20,NW,323,1.0,2.0,68,0.00,,,0.00,0,HR-IXPWINDi_r2_v1.2.,2013-02-25 12:43:00,
2013-02-25 04:48:00,33.6,24.5,30.20,NW,323,1.0,2.0,69,0.00,,,0.00,0,HR-IXPWINDi_r2_v1.2.,2013-02-25 12:48:00,
2013-02-25 04:53:00,33.9,24.4,30.19,NW,323,1.0,3.0,68,0.00,,,0.00,0,HR-IXPWINDi_r2_v1.2.,2013-02-25 12:53:00,
2013-02-25 04:58:00,34.0,24.5,30.20,NW,322,2.0,3.0,68,0.00,,,0.00,0,HR-IXPWINDi_r2_v1.2.,2013-02-25 12:58:00,
2013-02-25 05:03:00,34.1,24.3,30.19,NW,322,2.0,3.0,67,0.00,,,0.00,0,HR-IXPWINDi_r2_v1.2.,2013-02-25 13:03:00,
2013-02-25 05:08:00,34.5,23.9,30.19,NW,315,2.0,4.0,65,0.00,,,0.00,0,HR-IXPWINDi_r2_v1.2.,2013-02-25 13:08:00,
2013-02-25 05:13:00,35.7,22.8,30.20,WNW,301,1.0,4.0,59,0.00,,,0.00,0,HR-IXPWINDi_r2_v1.2.,2013-02-25 13:13:00,
2013-02-25 05:19:00,36.4,22.6,30.20,WNW,301,1.0,3.0,57,0.00,,,0.00,0,HR-IXPWINDi_r2_v1.2.,2013-02-25 13:19:00,
2013-02-25 05:24:00,35.6,23.1,30.20,WNW,301,2.0,3.0,60,0.00,,,0.00,0,HR-IXPWINDi_r2_v1.2.,2013-02-25 13:24:00,
2013-02-25 05:29:00,36.0,23.1,30.20,WNW,301,2.0,3.0,59,0.00,,,0.00,0,HR-IXPWINDi_r2_v1.2.,2013-02-25 13:29:00,
2013-02-25 05:34:00,36.9,22.7,30.19,WNW,300,2.0,3.0,56,0.00,,,0.00,0,HR-IXPWINDi_r2_v1.2.,2013-02-25 13:34:00,
2013-02-25 05:39:00,35.5,23.8,30.20,WNW,300,2.0,3.0,62,0.00,,,0.00,0,HR-IXPWINDi_r2_v1.2.,2013-02-25 13:39:00,
2013-02-25 05:44:00,34.4,23.8,30.20,WNW,300,1.0,2.0,65,0.00,,,0.00,0,HR-IXPWINDi_r2_v1.2.,2013-02-25 13:44:00,
2013-02-25 05:50:00,35.1,23.0,30.20,WNW,300,2.0,2.0,61,0.00,,,0.00,0,HR-IXPWINDi_r2_v1.2.,2013-02-25 13:50:00,
2013-02-25 05:55:00,36.0,23.9,30.20,WNW,300,0.0,2.0,61,0.00,,,0.00,0,HR-IXPWINDi_r2_v1.2.,2013-02-25 13:55:00,
2013-02-25 06:00:00,35.4,23.3,30.20,WNW,300,0.0,2.0,61,0.00,,,0.00,0,HR-IXPWINDi_r2_v1.2.,2013-02-25 14:00:00,
2013-02-25 06:05:00,34.4,23.1,30.20,WNW,300,1.0,2.0,63,0.00,,,0.00,0,HR-IXPWINDi_r2_v1.2.,2013-02-25 14:05:00,
2013-02-25 06:10:00,33.8,23.6,30.20,WNW,300,0.0,2.0,66,0.00,,,0.00,0,HR-IXPWINDi_r2_v1.2.,2013-02-25 14:10:00,
2013-02-25 06:15:00,33.3,23.2,30.20,WNW,300,1.0,2.0,66,0.00,,,0.00,0,HR-IXPWINDi_r2_v1.2.,2013-02-25 14:15:00,
2013-02-25 06:20:00,33.7,23.2,30.20,NNW,327,2.0,3.0,65,0.00,,,0.00,0,HR-IXPWINDi_r2_v1.2.,2013-02-25 14:20:00,
2013-02-25 06:25:00,33.9,23.7,30.20,NNW,327,0.0,3.0,66,0.00,,,0.00,0,HR-IXPWINDi_r2_v1.2.,2013-02-25 14:25:00,
2013-02-25 06:31:00,34.3,23.0,30.20,NNW,340,2.0,3.0,63,0.00,,,0.00,5,HR-IXPWINDi_r2_v1.2.,2013-02-25 14:31:00,
2013-02-25 06:36:00,34.7,23.0,30.20,North,349,1.0,3.0,62,0.00,,,0.00,7,HR-IXPWINDi_r2_v1.2.,2013-02-25 14:36:00,
2013-02-25 06:41:00,34.6,22.9,30.20,North,349,0.0,3.0,62,0.00,,,0.00,9,HR-IXPWINDi_r2_v1.2.,2013-02-25 14:41:00,
2013-02-25 06:46:00,33.9,23.0,30.20,North,349,0.0,2.0,64,0.00,,,0.00,11,HR-IXPWINDi_r2_v1.2.,2013-02-25 14:46:00,
2013-02-25 06:51:00,33.7,24.3,30.20,North,349,0.0,2.0,68,0.00,,,0.00,12,HR-IXPWINDi_r2_v1.2.,2013-02-25 14:51:00,
2013-02-25 06:56:00,33.8,25.0,30.20,North,349,0.0,2.0,70,0.00,,,0.00,14,HR-IXPWINDi_r2_v1.2.,2013-02-25 14:56:00,
2013-02-25 07:01:00,33.9,25.1,30.20,North,349,0.0,2.0,70,0.00,,,0.00,28,HR-IXPWINDi_r2_v1.2.,2013-02-25 15:01:00,
2013-02-25 07:06:00,34.6,26.2,30.21,North,349,0.0,2.0,71,0.00,,,0.00,69,HR-IXPWINDi_r2_v1.2.,2013-02-25 15:06:00,
2013-02-25 07:11:00,36.2,27.7,30.21,North,349,0.0,1.0,71,0.00,,,0.00,70,HR-IXPWINDi_r2_v1.2.,2013-02-25 15:11:00,
2013-02-25 07:17:00,38.4,26.9,30.21,North,349,0.0,1.0,63,0.00,,,0.00,98,HR-IXPWINDi_r2_v1.2.,2013-02-25 15:17:00,
2013-02-25 07:22:00,39.7,26.5,30.21,North,349,0.0,2.0,59,0.00,,,0.00,116,HR-IXPWINDi_r2_v1.2.,2013-02-25 15:22:00,
2013-02-25 07:27:00,41.4,26.0,30.21,North,349,2.0,2.0,54,0.00,,,0.00,127,HR-IXPWINDi_r2_v1.2.,2013-02-25 15:27:00,
2013-02-25 07:32:00,41.5,26.1,30.21,North,349,0.0,2.0,54,0.00,,,0.00,149,HR-IXPWINDi_r2_v1.2.,2013-02-25 15:32:00,
2013-02-25 07:37:00,42.4,26.9,30.21,North,349,0.0,2.0,54,0.00,,,0.00,185,HR-IXPWINDi_r2_v1.2.,2013-02-25 15:37:00,
2013-02-25 07:43:00,44.3,26.3,30.21,North,349,0.0,2.0,49,0.00,,,0.00,213,HR-IXPWINDi_r2_v1.2.,2013-02-25 15:43:00,
2013-02-25 07:48:00,45.6,27.0,30.22,North,351,2.0,3.0,48,0.00,,,0.00,54,HR-IXPWINDi_r2_v1.2.,2013-02-25 15:48:00,
2013-02-25 07:53:00,47.1,26.3,30.21,North,360,1.0,3.0,44,0.00,,,0.00,162,HR-IXPWINDi_r2_v1.2.,2013-02-25 15:53:00,
2013-02-25 07:58:00,47.4,27.1,30.21,North,360,1.0,3.0,45,0.00,,,0.00,116,HR-IXPWINDi_r2_v1.2.,2013-02-25 15:58:00,
2013-02-25 08:03:00,47.3,28.6,30.22,North,360,0.0,2.0,48,0.00,,,0.00,81,HR-IXPWINDi_r2_v1.2.,2013-02-25 16:03:00,
2013-02-25 08:09:00,47.2,28.0,30.21,North,360,0.0,2.0,47,0.00,,,0.00,67,HR-IXPWINDi_r2_v1.2.,2013-02-25 16:09:00,
2013-02-25 08:14:00,47.8,24.0,30.21,North,360,1.0,2.0,39,0.00,,,0.00,84,HR-IXPWINDi_r2_v1.2.,2013-02-25 16:14:00,
2013-02-25 08:19:00,48.5,27.0,30.21,North,360,0.0,2.0,43,0.00,,,0.00,63,HR-IXPWINDi_r2_v1.2.,2013-02-25 16:19:00,
2013-02-25 08:24:00,49.2,26.5,30.21,North,360,1.0,2.0,41,0.00,,,0.00,86,HR-IXPWINDi_r2_v1.2.,2013-02-25 16:24:00,
2013-02-25 08:29:00,49.6,23.7,30.21,SSE,161,0.0,2.0,36,0.00,,,0.00,109,HR-IXPWINDi_r2_v1.2.,2013-02-25 16:29:00,
2013-02-25 08:35:00,50.6,26.5,30.21,SSE,155,1.0,2.0,39,0.00,,,0.00,53,HR-IXPWINDi_r2_v1.2.,2013-02-25 16:35:00,
2013-02-25 08:40:00,50.7,26.0,30.20,SSE,155,1.0,2.0,38,0.00,,,0.00,79,HR-IXPWINDi_r2_v1.2.,2013-02-25 16:40:00,
2013-02-25 08:45:00,50.9,22.8,30.20,SSE,155,1.0,3.0,33,0.00,,,0.00,148,HR-IXPWINDi_r2_v1.2.,2013-02-25 16:45:00,
2013-02-25 08:50:00,51.5,23.3,30.20,SSE,164,4.0,4.0,33,0.00,,,0.00,58,HR-IXPWINDi_r2_v1.2.,2013-02-25 16:50:00,
2013-02-25 08:55:00,51.8,22.9,30.20,SSE,161,2.0,4.0,32,0.00,,,0.00,72,HR-IXPWINDi_r2_v1.2.,2013-02-25 16:55:00,
2013-02-25 09:00:00,52.3,24.8,30.20,SSE,167,3.0,4.0,34,0.00,,,0.00,58,HR-IXPWINDi_r2_v1.2.,2013-02-25 17:00:00,
2013-02-25 09:06:00,53.1,23.3,30.20,SSE,156,1.0,4.0,31,0.00,,,0.00,90,HR-IXPWINDi_r2_v1.2.,2013-02-25 17:06:00,
2013-02-25 09:11:00,53.6,23.7,30.19,SSW,192,4.0,4.0,31,0.00,,,0.00,149,HR-IXPWINDi_r2_v1.2.,2013-02-25 17:11:00,
2013-02-25 09:16:00,54.4,23.6,30.19,South,171,2.0,4.0,30,0.00,,,0.00,65,HR-IXPWINDi_r2_v1.2.,2013-02-25 17:16:00,
2013-02-25 09:21:00,54.9,23.2,30.19,South,187,3.0,5.0,29,0.00,,,0.00,69,HR-IXPWINDi_r2_v1.2.,2013-02-25 17:21:00,
2013-02-25 09:26:00,55.3,23.6,30.19,South,180,4.0,6.0,29,0.00,,,0.00,74,HR-IXPWINDi_r2_v1.2.,2013-02-25 17:26:00,
2013-02-25 09:31:00,55.6,23.0,30.18,SSE,166,4.0,6.0,28,0.00,,,0.00,77,HR-IXPWINDi_r2_v1.2.,2013-02-25 17:31:00,
2013-02-25 09:36:00,56.3,23.6,30.18,South,190,3.0,6.0,28,0.00,,,0.00,62,HR-IXPWINDi_r2_v1.2.,2013-02-25 17:36:00,
2013-02-25 09:42:00,57.5,23.8,30.18,South,182,3.0,6.0,27,0.00,,,0.00,70,HR-IXPWINDi_r2_v1.2.,2013-02-25 17:42:00,
2013-02-25 09:47:00,57.8,24.9,30.18,SSE,167,3.0,6.0,28,0.00,,,0.00,97,HR-IXPWINDi_r2_v1.2.,2013-02-25 17:47:00,
2013-02-25 09:52:00,58.2,24.4,30.18,SSE,164,2.0,6.0,27,0.00,,,0.00,163,HR-IXPWINDi_r2_v1.2.,2013-02-25 17:52:00,
2013-02-25 09:57:00,58.6,23.8,30.18,South,176,3.0,6.0,26,0.00,,,0.00,350,HR-IXPWINDi_r2_v1.2.,2013-02-25 17:57:00,
2013-02-25 10:02:00,59.4,23.6,30.18,South,169,3.0,5.0,25,0.00,,,0.00,329,HR-IXPWINDi_r2_v1.2.,2013-02-25 18:02:00,
2013-02-25 10:08:00,60.1,24.2,30.18,South,190,5.0,5.0,25,0.00,,,0.00,478,HR-IXPWINDi_r2_v1.2.,2013-02-25 18:08:00,
2013-02-25 10:13:00,60.7,25.6,30.18,SSE,147,0.0,5.0,26,0.00,,,0.00,485,HR-IXPWINDi_r2_v1.2.,2013-02-25 18:13:00,
2013-02-25 10:18:00,60.8,25.7,30.18,ESE,102,0.0,5.0,26,0.00,,,0.00,504,HR-IXPWINDi_r2_v1.2.,2013-02-25 18:18:00,
2013-02-25 10:23:00,61.1,24.0,30.17,East,101,1.0,2.0,24,0.00,,,0.00,540,HR-IXPWINDi_r2_v1.2.,2013-02-25 18:23:00,
2013-02-25 10:28:00,62.5,22.0,30.17,SSW,192,2.0,5.0,21,0.00,,,0.00,589,HR-IXPWINDi_r2_v1.2.,2013-02-25 18:28:00,
2013-02-25 10:34:00,63.0,22.5,30.17,South,181,1.0,5.0,21,0.00,,,0.00,631,HR-IXPWINDi_r2_v1.2.,2013-02-25 18:34:00,
2013-02-25 10:39:00,63.7,24.1,30.17,SSE,161,2.0,4.0,22,0.00,,,0.00,666,HR-IXPWINDi_r2_v1.2.,2013-02-25 18:39:00,
2013-02-25 10:44:00,64.2,21.1,30.17,South,175,1.0,4.0,19,0.00,,,0.00,696,HR-IXPWINDi_r2_v1.2.,2013-02-25 18:44:00,
2013-02-25 10:49:00,65.0,23.0,30.17,South,183,1.0,5.0,20,0.00,,,0.00,717,HR-IXPWINDi_r2_v1.2.,2013-02-25 18:49:00,
2013-02-25 10:54:00,64.9,24.0,30.17,SSE,166,5.0,5.0,21,0.00,,,0.00,729,HR-IXPWINDi_r2_v1.2.,2013-02-25 18:54:00,
2013-02-25 11:00:00,65.3,20.7,30.17,South,182,1.0,5.0,18,0.00,,,0.00,737,HR-IXPWINDi_r2_v1.2.,2013-02-25 19:00:00,
2013-02-25 11:05:00,66.5,23.0,30.16,SSE,168,2.0,5.0,19,0.00,,,0.00,740,HR-IXPWINDi_r2_v1.2.,2013-02-25 19:05:00,
2013-02-25 11:10:00,66.2,20.1,30.16,SSE,161,4.0,7.0,17,0.00,,,0.00,735,HR-IXPWINDi_r2_v1.2.,2013-02-25 19:10:00,
2013-02-25 11:16:00,67.4,23.7,30.15,South,184,4.0,7.0,19,0.00,,,0.00,705,HR-IXPWINDi_r2_v1.2.,2013-02-25 19:16:00,
2013-02-25 11:21:00,68.2,24.4,30.15,South,177,5.0,8.0,19,0.00,,,0.00,663,HR-IXPWINDi_r2_v1.2.,2013-02-25 19:21:00,
2013-02-25 11:26:00,67.9,24.1,30.15,South,173,3.0,8.0,19,0.00,,,0.00,619,HR-IXPWINDi_r2_v1.2.,2013-02-25 19:26:00,
2013-02-25 11:32:00,68.7,24.8,30.14,South,171,3.0,7.0,19,0.00,,,0.00,592,HR-IXPWINDi_r2_v1.2.,2013-02-25 19:32:00,
2013-02-25 11:37:00,68.7,24.8,30.14,SSE,165,3.0,8.0,19,0.00,,,0.00,585,HR-IXPWINDi_r2_v1.2.,2013-02-25 19:37:00,
2013-02-25 11:42:00,67.3,22.3,30.14,South,182,3.0,10.0,18,0.00,,,0.00,610,HR-IXPWINDi_r2_v1.2.,2013-02-25 19:42:00,
2013-02-25 11:47:00,66.6,23.1,30.14,SSE,157,10.0,10.0,19,0.00,,,0.00,656,HR-IXPWINDi_r2_v1.2.,2013-02-25 19:47:00,
2013-02-25 11:52:00,66.7,29.8,30.14,SSE,160,0.0,10.0,25,0.00,,,0.00,701,HR-IXPWINDi_r2_v1.2.,2013-02-25 19:52:00,
2013-02-25 11:58:00,67.6,30.5,30.13,ESE,116,1.0,10.0,25,0.00,,,0.00,737,HR-IXPWINDi_r2_v1.2.,2013-02-25 19:58:00,
2013-02-25 12:03:00,67.6,30.5,30.13,South,182,8.0,10.0,25,0.00,,,0.00,765,HR-IXPWINDi_r2_v1.2.,2013-02-25 20:03:00,
2013-02-25 12:08:00,67.5,30.4,30.13,SE,144,4.0,11.0,25,0.00,,,0.00,770,HR-IXPWINDi_r2_v1.2.,2013-02-25 20:08:00,
2013-02-25 12:13:00,68.1,28.9,30.13,South,186,6.0,11.0,23,0.00,,,0.00,772,HR-IXPWINDi_r2_v1.2.,2013-02-25 20:13:00,
2013-02-25 12:18:00,68.7,29.4,30.13,SSE,166,4.0,10.0,23,0.00,,,0.00,766,HR-IXPWINDi_r2_v1.2.,2013-02-25 20:18:00,
2013-02-25 12:24:00,68.1,29.9,30.13,South,187,4.0,9.0,24,0.00,,,0.00,766,HR-IXPWINDi_r2_v1.2.,2013-02-25 20:24:00,
2013-02-25 12:29:00,67.3,26.0,30.13,SSE,164,5.0,10.0,21,0.00,,,0.00,766,HR-IXPWINDi_r2_v1.2.,2013-02-25 20:29:00,
2013-02-25 12:34:00,67.1,27.0,30.13,SSE,155,3.0,10.0,22,0.00,,,0.00,761,HR-IXPWINDi_r2_v1.2.,2013-02-25 20:34:00,
2013-02-25 12:39:00,68.3,30.1,30.13,SSE,167,2.0,10.0,24,0.00,,,0.00,761,HR-IXPWINDi_r2_v1.2.,2013-02-25 20:39:00,
2013-02-25 12:44:00,67.5,26.2,30.12,SE,140,7.0,11.0,21,0.00,,,0.00,756,HR-IXPWINDi_r2_v1.2.,2013-02-25 20:44:00,
2013-02-25 12:50:00,67.7,27.5,30.12,South,173,6.0,11.0,22,0.00,,,0.00,751,HR-IXPWINDi_r2_v1.2.,2013-02-25 20:50:00,
2013-02-25 12:55:00,68.3,31.1,30.12,SSE,159,5.0,9.0,25,0.00,,,0.00,749,HR-IXPWINDi_r2_v1.2.,2013-02-25 20:55:00,
2013-02-25 13:00:00,68.0,27.7,30.11,SSE,148,9.0,11.0,22,0.00,,,0.00,742,HR-IXPWINDi_r2_v1.2.,2013-02-25 21:00:00,
2013-02-25 13:05:00,68.3,29.1,30.11,ENE,71,2.0,11.0,23,0.00,,,0.00,738,HR-IXPWINDi_r2_v1.2.,2013-02-25 21:05:00,
2013-02-25 13:10:00,68.4,30.2,30.11,SSE,148,2.0,10.0,24,0.00,,,0.00,733,HR-IXPWINDi_r2_v1.2.,2013-02-25 21:10:00,
2013-02-25 13:16:00,68.8,27.3,30.11,ESE,113,1.0,10.0,21,0.00,,,0.00,721,HR-IXPWINDi_r2_v1.2.,2013-02-25 21:16:00,
2013-02-25 13:21:00,68.6,31.4,30.11,East,97,1.0,9.0,25,0.00,,,0.00,705,HR-IXPWINDi_r2_v1.2.,2013-02-25 21:21:00,
2013-02-25 13:26:00,68.2,29.0,30.11,ENE,66,2.0,9.0,23,0.00,,,0.00,689,HR-IXPWINDi_r2_v1.2.,2013-02-25 21:26:00,
2013-02-25 13:31:00,68.2,26.8,30.11,SSE,157,2.0,9.0,21,0.00,,,0.00,673,HR-IXPWINDi_r2_v1.2.,2013-02-25 21:31:00,
2013-02-25 13:36:00,67.8,26.4,30.10,South,182,3.0,9.0,21,0.00,,,0.00,663,HR-IXPWINDi_r2_v1.2.,2013-02-25 21:36:00,
2013-02-25 13:42:00,68.6,29.3,30.10,East,90,2.0,8.0,23,0.00,,,0.00,663,HR-IXPWINDi_r2_v1.2.,2013-02-25 21:42:00,
2013-02-25 13:47:00,68.2,30.0,30.10,SE,140,5.0,8.0,24,0.00,,,0.00,664,HR-IXPWINDi_r2_v1.2.,2013-02-25 21:47:00,
2013-02-25 13:52:00,68.2,29.0,30.10,East,86,2.0,9.0,23,0.00,,,0.00,668,HR-IXPWINDi_r2_v1.2.,2013-02-25 21:52:00,
2013-02-25 13:57:00,68.4,30.2,30.10,SE,140,1.0,9.0,24,0.00,,,0.00,661,HR-IXPWINDi_r2_v1.2.,2013-02-25 21:57:00,
2013-02-25 14:02:00,67.5,26.2,30.10,ESE,119,4.0,9.0,21,0.00,,,0.00,647,HR-IXPWINDi_r2_v1.2.,2013-02-25 22:02:00,
2013-02-25 14:07:00,67.7,28.6,30.10,South,176,3.0,8.0,23,0.00,,,0.00,638,HR-IXPWINDi_r2_v1.2.,2013-02-25 22:07:00,
2013-02-25 14:12:00,67.4,27.2,30.09,South,175,3.0,11.0,22,0.00,,,0.00,626,HR-IXPWINDi_r2_v1.2.,2013-02-25 22:12:00,
2013-02-25 14:18:00,67.8,29.7,30.10,SE,132,4.0,11.0,24,0.00,,,0.00,615,HR-IXPWINDi_r2_v1.2.,2013-02-25 22:18:00,
2013-02-25 14:23:00,67.6,29.5,30.09,WSW,248,3.0,10.0,24,0.00,,,0.00,601,HR-IXPWINDi_r2_v1.2.,2013-02-25 22:23:00,
2013-02-25 14:28:00,66.2,28.3,30.09,South,170,2.0,10.0,24,0.00,,,0.00,592,HR-IXPWINDi_r2_v1.2.,2013-02-25 22:28:00,
2013-02-25 14:33:00,67.4,31.3,30.09,SE,143,3.0,10.0,26,0.00,,,0.00,582,HR-IXPWINDi_r2_v1.2.,2013-02-25 22:33:00,
2013-02-25 14:39:00,66.5,28.6,30.09,SSW,205,6.0,7.0,24,0.00,,,0.00,526,HR-IXPWINDi_r2_v1.2.,2013-02-25 22:39:00,
2013-02-25 14:44:00,65.9,29.1,30.09,South,170,1.0,8.0,25,0.00,,,0.00,563,HR-IXPWINDi_r2_v1.2.,2013-02-25 22:44:00,
2013-02-25 14:49:00,67.1,32.0,30.10,SE,128,2.0,8.0,27,0.00,,,0.00,550,HR-IXPWINDi_r2_v1.2.,2013-02-25 22:49:00,
2013-02-25 14:54:00,66.3,32.2,30.09,SSE,159,2.0,9.0,28,0.00,,,0.00,541,HR-IXPWINDi_r2_v1.2.,2013-02-25 22:54:00,
2013-02-25 14:59:00,65.2,31.3,30.09,SSE,161,1.0,12.0,28,0.00,,,0.00,540,HR-IXPWINDi_r2_v1.2.,2013-02-25 22:59:00,
2013-02-25 15:05:00,65.8,33.5,30.09,SE,146,5.0,12.0,30,0.00,,,0.00,504,HR-IXPWINDi_r2_v1.2.,2013-02-25 23:05:00,
2013-02-25 15:10:00,65.6,32.5,30.09,South,184,2.0,7.0,29,0.00,,,0.00,497,HR-IXPWINDi_r2_v1.2.,2013-02-25 23:10:00,
2013-02-25 15:15:00,64.8,30.9,30.09,South,190,4.0,8.0,28,0.00,,,0.00,473,HR-IXPWINDi_r2_v1.2.,2013-02-25 23:15:00,
2013-02-25 15:20:00,64.5,34.7,30.08,South,189,2.0,8.0,33,0.00,,,0.00,427,HR-IXPWINDi_r2_v1.2.,2013-02-25 23:20:00,
2013-02-25 15:25:00,65.0,33.6,30.08,South,191,5.0,8.0,31,0.00,,,0.00,429,HR-IXPWINDi_r2_v1.2.,2013-02-25 23:25:00,
2013-02-25 15:31:00,64.6,34.8,30.08,South,177,3.0,8.0,33,0.00,,,0.00,425,HR-IXPWINDi_r2_v1.2.,2013-02-25 23:31:00,
2013-02-25 15:36:00,64.3,34.6,30.08,South,178,9.0,9.0,33,0.00,,,0.00,410,HR-IXPWINDi_r2_v1.2.,2013-02-25 23:36:00,
2013-02-25 15:41:00,64.1,36.6,30.08,SSE,152,2.0,9.0,36,0.00,,,0.00,390,HR-IXPWINDi_r2_v1.2.,2013-02-25 23:41:00,
2013-02-25 15:46:00,63.7,36.9,30.08,South,173,2.0,8.0,37,0.00,,,0.00,366,HR-IXPWINDi_r2_v1.2.,2013-02-25 23:46:00,
2013-02-25 15:52:00,63.6,36.8,30.07,SSE,158,2.0,8.0,37,0.00,,,0.00,350,HR-IXPWINDi_r2_v1.2.,2013-02-25 23:52:00,
2013-02-25 15:57:00,63.3,36.6,30.08,South,190,2.0,6.0,37,0.00,,,0.00,329,HR-IXPWINDi_r2_v1.2.,2013-02-25 23:57:00,
2013-02-25 16:02:00,61.7,35.1,30.07,South,186,3.0,8.0,37,0.00,,,0.00,306,HR-IXPWINDi_r2_v1.2.,2013-02-26 00:02:00,
2013-02-25 16:07:00,61.0,37.7,30.07,South,175,3.0,8.0,42,0.00,,,0.00,267,HR-IXPWINDi_r2_v1.2.,2013-02-26 00:07:00,
2013-02-25 16:13:00,60.6,36.1,30.07,South,174,5.0,7.0,40,0.00,,,0.00,285,HR-IXPWINDi_r2_v1.2.,2013-02-26 00:13:00,
2013-02-25 16:18:00,59.9,36.7,30.07,South,182,3.0,7.0,42,0.00,,,0.00,62,HR-IXPWINDi_r2_v1.2.,2013-02-26 00:18:00,
2013-02-25 16:23:00,59.4,36.3,30.06,SSW,192,4.0,6.0,42,0.00,,,0.00,44,HR-IXPWINDi_r2_v1.2.,2013-02-26 00:23:00,
2013-02-25 16:28:00,58.9,37.0,30.06,SSE,164,3.0,9.0,44,0.00,,,0.00,44,HR-IXPWINDi_r2_v1.2.,2013-02-26 00:28:00,
2013-02-25 16:33:00,58.4,37.1,30.06,SSE,162,4.0,9.0,45,0.00,,,0.00,39,HR-IXPWINDi_r2_v1.2.,2013-02-26 00:33:00,
2013-02-25 16:39:00,57.9,37.2,30.06,SSE,165,4.0,7.0,46,0.00,,,0.00,32,HR-IXPWINDi_r2_v1.2.,2013-02-26 00:39:00,
2013-02-25 16:44:00,57.5,37.9,30.06,South,173,3.0,7.0,48,0.00,,,0.00,26,HR-IXPWINDi_r2_v1.2.,2013-02-26 00:44:00,
2013-02-25 16:49:00,57.1,38.1,30.05,South,173,1.0,7.0,49,0.00,,,0.00,25,HR-IXPWINDi_r2_v1.2.,2013-02-26 00:49:00,
2013-02-25 16:54:00,56.7,38.2,30.05,South,174,1.0,5.0,50,0.00,,,0.00,23,HR-IXPWINDi_r2_v1.2.,2013-02-26 00:54:00,
2013-02-25 16:59:00,56.3,38.4,30.06,South,176,2.0,5.0,51,0.00,,,0.00,21,HR-IXPWINDi_r2_v1.2.,2013-02-26 00:59:00,
2013-02-25 17:04:00,56.1,38.7,30.05,SSE,163,3.0,6.0,52,0.00,,,0.00,19,HR-IXPWINDi_r2_v1.2.,2013-02-26 01:04:00,
2013-02-25 17:09:00,55.9,39.5,30.05,South,188,4.0,6.0,54,0.00,,,0.00,19,HR-IXPWINDi_r2_v1.2.,2013-02-26 01:09:00,
2013-02-25 17:15:00,55.6,39.6,30.05,South,175,1.0,6.0,55,0.00,,,0.00,18,HR-IXPWINDi_r2_v1.2.,2013-02-26 01:15:00,
2013-02-25 17:20:00,55.4,39.9,30.05,SSE,163,3.0,6.0,56,0.00,,,0.00,16,HR-IXPWINDi_r2_v1.2.,2013-02-26 01:20:00,
2013-02-25 17:25:00,55.1,40.5,30.05,South,188,2.0,6.0,58,0.00,,,0.00,14,HR-IXPWINDi_r2_v1.2.,2013-02-26 01:25:00,
2013-02-25 17:30:00,55.0,40.9,30.05,WSW,249,0.0,5.0,59,0.00,,,0.00,12,HR-IXPWINDi_r2_v1.2.,2013-02-26 01:30:00,
2013-02-25 17:35:00,54.6,40.9,30.05,SW,217,3.0,5.0,60,0.00,,,0.00,11,HR-IXPWINDi_r2_v1.2.,2013-02-26 01:35:00,
2013-02-25 17:40:00,54.2,41.0,30.05,SW,225,2.0,4.0,61,0.00,,,0.00,7,HR-IXPWINDi_r2_v1.2.,2013-02-26 01:40:00,
2013-02-25 17:46:00,53.9,41.1,30.05,South,188,2.0,4.0,62,0.00,,,0.00,5,HR-IXPWINDi_r2_v1.2.,2013-02-26 01:46:00,
2013-02-25 17:51:00,53.6,40.9,30.05,SSW,192,0.0,3.0,62,0.00,,,0.00,0,HR-IXPWINDi_r2_v1.2.,2013-02-26 01:51:00,
2013-02-25 17:56:00,53.2,40.9,30.05,SSW,193,0.0,3.0,63,0.00,,,0.00,0,HR-IXPWINDi_r2_v1.2.,2013-02-26 01:56:00,
2013-02-25 18:01:00,52.8,40.9,30.05,SSW,193,0.0,3.0,64,0.00,,,0.00,0,HR-IXPWINDi_r2_v1.2.,2013-02-26 02:01:00,
2013-02-25 18:06:00,52.3,40.8,30.05,SSW,193,0.0,3.0,65,0.00,,,0.00,0,HR-IXPWINDi_r2_v1.2.,2013-02-26 02:06:00,
2013-02-25 18:11:00,51.2,40.2,30.05,SSW,193,1.0,3.0,66,0.00,,,0.00,0,HR-IXPWINDi_r2_v1.2.,2013-02-26 02:11:00,
2013-02-25 18:16:00,50.0,40.6,30.05,SSW,193,0.0,2.0,70,0.00,,,0.00,0,HR-IXPWINDi_r2_v1.2.,2013-02-26 02:16:00,
2013-02-25 18:22:00,49.2,40.2,30.05,SSW,193,0.0,2.0,71,0.00,,,0.00,0,HR-IXPWINDi_r2_v1.2.,2013-02-26 02:22:00,
2013-02-25 18:27:00,48.5,39.8,30.05,SSW,193,0.0,2.0,72,0.00,,,0.00,0,HR-IXPWINDi_r2_v1.2.,2013-02-26 02:27:00,
2013-02-25 18:32:00,48.1,39.8,30.05,NW,306,3.0,3.0,73,0.00,,,0.00,0,HR-IXPWINDi_r2_v1.2.,2013-02-26 02:32:00,
2013-02-25 18:38:00,48.7,39.7,30.06,WNW,294,3.0,5.0,71,0.00,,,0.00,0,HR-IXPWINDi_r2_v1.2.,2013-02-26 02:38:00,
2013-02-25 18:43:00,48.8,39.0,30.06,WNW,298,2.0,5.0,69,0.00,,,0.00,0,HR-IXPWINDi_r2_v1.2.,2013-02-26 02:43:00,
2013-02-25 18:48:00,48.4,39.0,30.06,WNW,298,2.0,4.0,70,0.00,,,0.00,0,HR-IXPWINDi_r2_v1.2.,2013-02-26 02:48:00,
2013-02-25 18:53:00,47.8,38.4,30.06,WNW,299,0.0,3.0,70,0.00,,,0.00,0,HR-IXPWINDi_r2_v1.2.,2013-02-26 02:53:00,
2013-02-25 18:58:00,46.9,38.3,30.06,WNW,299,0.0,3.0,72,0.00,,,0.00,0,HR-IXPWINDi_r2_v1.2.,2013-02-26 02:58:00,
2013-02-25 19:03:00,46.9,38.3,30.06,WNW,299,1.0,2.0,72,0.00,,,0.00,0,HR-IXPWINDi_r2_v1.2.,2013-02-26 03:03:00,
2013-02-25 19:08:00,46.9,38.3,30.06,WNW,299,1.0,2.0,72,0.00,,,0.00,0,HR-IXPWINDi_r2_v1.2.,2013-02-26 03:08:00,
2013-02-25 19:14:00,46.4,37.8,30.06,WNW,299,0.0,2.0,72,0.00,,,0.00,0,HR-IXPWINDi_r2_v1.2.,2013-02-26 03:14:00,
2013-02-25 19:19:00,45.7,37.8,30.07,WNW,299,1.0,1.0,74,0.00,,,0.00,0,HR-IXPWINDi_r2_v1.2.,2013-02-26 03:19:00,
2013-02-25 19:24:00,45.6,37.8,30.07,WNW,300,0.0,2.0,74,0.00,,,0.00,0,HR-IXPWINDi_r2_v1.2.,2013-02-26 03:24:00,
2013-02-25 19:29:00,45.1,37.3,30.06,WNW,299,0.0,2.0,74,0.00,,,0.00,0,HR-IXPWINDi_r2_v1.2.,2013-02-26 03:29:00,
2013-02-25 19:34:00,44.6,37.5,30.06,WNW,299,0.0,2.0,76,0.00,,,0.00,0,HR-IXPWINDi_r2_v1.2.,2013-02-26 03:34:00,
2013-02-25 19:39:00,44.3,37.2,30.06,WNW,299,1.0,3.0,76,0.00,,,0.00,0,HR-IXPWINDi_r2_v1.2.,2013-02-26 03:39:00,
2013-02-25 19:44:00,44.3,36.8,30.06,WNW,299,0.0,3.0,75,0.00,,,0.00,0,HR-IXPWINDi_r2_v1.2.,2013-02-26 03:44:00,
2013-02-25 19:50:00,43.8,36.7,30.07,WNW,299,1.0,1.0,76,0.00,,,0.00,0,HR-IXPWINDi_r2_v1.2.,2013-02-26 03:50:00,
2013-02-25 19:55:00,43.3,36.9,30.07,WNW,299,1.0,2.0,78,0.00,,,0.00,0,HR-IXPWINDi_r2_v1.2.,2013-02-26 03:55:00,
2013-02-25 20:00:00,43.3,36.9,30.07,WNW,300,1.0,2.0,78,0.00,,,0.00,0,HR-IXPWINDi_r2_v1.2.,2013-02-26 04:00:00,
2013-02-25 20:05:00,43.3,36.5,30.07,WNW,300,2.0,3.0,77,0.00,,,0.00,0,HR-IXPWINDi_r2_v1.2.,2013-02-26 04:05:00,
2013-02-25 20:10:00,44.2,37.1,30.07,WNW,299,2.0,5.0,76,0.00,,,0.00,0,HR-IXPWINDi_r2_v1.2.,2013-02-26 04:10:00,
2013-02-25 20:15:00,44.6,36.4,30.07,WNW,301,2.0,5.0,73,0.00,,,0.00,0,HR-IXPWINDi_r2_v1.2.,2013-02-26 04:15:00,
2013-02-25 20:21:00,44.2,36.4,30.07,WNW,288,5.0,5.0,74,0.00,,,0.00,0,HR-IXPWINDi_r2_v1.2.,2013-02-26 04:21:00,
2013-02-25 20:26:00,44.9,36.7,30.07,WNW,300,2.0,6.0,73,0.00,,,0.00,0,HR-IXPWINDi_r2_v1.2.,2013-02-26 04:26:00,
2013-02-25 20:31:00,45.1,36.2,30.07,WNW,303,2.0,6.0,71,0.00,,,0.00,0,HR-IXPWINDi_r2_v1.2.,2013-02-26 04:31:00,
2013-02-25 20:36:00,44.7,35.8,30.07,WNW,303,1.0,5.0,71,0.00,,,0.00,0,HR-IXPWINDi_r2_v1.2.,2013-02-26 04:36:00,
2013-02-25 20:41:00,44.5,36.0,30.07,WNW,300,2.0,4.0,72,0.00,,,0.00,0,HR-IXPWINDi_r2_v1.2.,2013-02-26 04:41:00,
2013-02-25 20:46:00,43.9,35.8,30.07,NW,305,2.0,4.0,73,0.00,,,0.00,0,HR-IXPWINDi_r2_v1.2.,2013-02-26 04:46:00,
2013-02-25 20:52:00,43.8,35.7,30.07,NW,309,1.0,4.0,73,0.00,,,0.00,0,HR-IXPWINDi_r2_v1.2.,2013-02-26 04:52:00,
2013-02-25 20:57:00,43.4,35.6,30.07,NW,309,1.0,3.0,74,0.00,,,0.00,0,HR-IXPWINDi_r2_v1.2.,2013-02-26 04:57:00,
2013-02-25 21:00:00,43.3,35.5,30.07,NW,309,0.0,3.0,74,0.00,,,0.00,0,HR-IXPWINDi_r2_v1.2.,2013-02-26 05:00:00,
2013-02-25 21:05:00,43.3,35.5,30.07,NW,319,1.0,4.0,74,0.00,,,0.00,0,HR-IXPWINDi_r2_v1.2.,2013-02-26 05:05:00,
2013-02-25 21:10:00,43.5,35.4,30.07,WNW,303,3.0,4.0,73,0.00,,,0.00,0,HR-IXPWINDi_r2_v1.2.,2013-02-26 05:10:00,
2013-02-25 21:15:00,43.7,35.2,30.07,WNW,302,1.0,4.0,72,0.00,,,0.00,0,HR-IXPWINDi_r2_v1.2.,2013-02-26 05:15:00,
2013-02-25 21:20:00,43.3,34.8,30.07,WNW,302,0.0,3.0,72,0.00,,,0.00,0,HR-IXPWINDi_r2_v1.2.,2013-02-26 05:20:00,
2013-02-25 21:26:00,42.6,34.9,30.07,WNW,302,2.0,2.0,74,0.00,,,0.00,0,HR-IXPWINDi_r2_v1.2.,2013-02-26 05:26:00,
2013-02-25 21:31:00,43.2,35.1,30.07,NW,317,2.0,5.0,73,0.00,,,0.00,0,HR-IXPWINDi_r2_v1.2.,2013-02-26 05:31:00,
2013-02-25 21:36:00,43.8,35.0,30.08,WNW,302,1.0,5.0,71,0.00,,,0.00,0,HR-IXPWINDi_r2_v1.2.,2013-02-26 05:36:00,
2013-02-25 21:41:00,43.6,34.8,30.08,WNW,302,0.0,4.0,71,0.00,,,0.00,0,HR-IXPWINDi_r2_v1.2.,2013-02-26 05:41:00,
2013-02-25 21:46:00,42.6,34.2,30.08,WNW,302,0.0,2.0,72,0.00,,,0.00,0,HR-IXPWINDi_r2_v1.2.,2013-02-26 05:46:00,
2013-02-25 21:52:00,42.2,34.5,30.08,WNW,302,0.0,2.0,74,0.00,,,0.00,0,HR-IXPWINDi_r2_v1.2.,2013-02-26 05:52:00,
2013-02-25 21:57:00,42.3,34.2,30.08,NW,309,2.0,3.0,73,0.00,,,0.00,0,HR-IXPWINDi_r2_v1.2.,2013-02-26 05:57:00,
2013-02-25 22:02:00,42.5,34.1,30.08,NW,314,1.0,3.0,72,0.00,,,0.00,0,HR-IXPWINDi_r2_v1.2.,2013-02-26 06:02:00,
2013-02-25 22:07:00,42.0,33.6,30.08,NW,314,0.0,2.0,72,0.00,,,0.00,0,HR-IXPWINDi_r2_v1.2.,2013-02-26 06:07:00,
2013-02-25 22:13:00,41.4,33.7,30.08,NW,314,1.0,2.0,74,0.00,,,0.00,0,HR-IXPWINDi_r2_v1.2.,2013-02-26 06:13:00,
2013-02-25 22:18:00,41.2,33.5,30.08,NW,314,0.0,2.0,74,0.00,,,0.00,0,HR-IXPWINDi_r2_v1.2.,2013-02-26 06:18:00,
2013-02-25 22:23:00,40.9,33.6,30.08,NW,315,1.0,3.0,75,0.00,,,0.00,0,HR-IXPWINDi_r2_v1.2.,2013-02-26 06:23:00,
2013-02-25 22:28:00,40.6,33.9,30.08,NW,317,1.0,3.0,77,0.00,,,0.00,0,HR-IXPWINDi_r2_v1.2.,2013-02-26 06:28:00,
2013-02-25 22:33:00,40.3,33.6,30.08,NW,317,0.0,3.0,77,0.00,,,0.00,0,HR-IXPWINDi_r2_v1.2.,2013-02-26 06:33:00,
2013-02-25 22:38:00,40.1,33.8,30.08,NW,317,1.0,2.0,78,0.00,,,0.00,0,HR-IXPWINDi_r2_v1.2.,2013-02-26 06:38:00,
2013-02-25 22:44:00,40.4,33.4,30.08,NW,317,2.0,2.0,76,0.00,,,0.00,0,HR-IXPWINDi_r2_v1.2.,2013-02-26 06:44:00,
2013-02-25 22:49:00,40.8,33.5,30.08,WNW,301,1.0,3.0,75,0.00,,,0.00,0,HR-IXPWINDi_r2_v1.2.,2013-02-26 06:49:00,
2013-02-25 22:54:00,40.7,33.0,30.08,WNW,301,0.0,3.0,74,0.00,,,0.00,0,HR-IXPWINDi_r2_v1.2.,2013-02-26 06:54:00,
2013-02-25 22:59:00,40.1,32.8,30.08,WNW,301,1.0,2.0,75,0.00,,,0.00,0,HR-IXPWINDi_r2_v1.2.,2013-02-26 06:59:00,
2013-02-25 23:05:00,39.6,33.0,30.07,WNW,301,1.0,2.0,77,0.00,,,0.00,0,HR-IXPWINDi_r2_v1.2.,2013-02-26 07:05:00,
2013-02-25 23:10:00,39.2,32.9,30.07,WNW,302,1.0,2.0,78,0.00,,,0.00,0,HR-IXPWINDi_r2_v1.2.,2013-02-26 07:10:00,
2013-02-25 23:15:00,39.7,33.1,30.07,NW,308,2.0,3.0,77,0.00,,,0.00,0,HR-IXPWINDi_r2_v1.2.,2013-02-26 07:15:00,
2013-02-25 23:20:00,40.1,33.1,30.07,NW,307,0.0,4.0,76,0.00,,,0.00,0,HR-IXPWINDi_r2_v1.2.,2013-02-26 07:20:00,
2013-02-25 23:25:00,40.3,32.3,30.07,WNW,297,3.0,4.0,73,0.00,,,0.00,0,HR-IXPWINDi_r2_v1.2.,2013-02-26 07:25:00,
2013-02-25 23:30:00,41.1,32.7,30.07,WNW,297,1.0,4.0,72,0.00,,,0.00,0,HR-IXPWINDi_r2_v1.2.,2013-02-26 07:30:00,
2013-02-25 23:36:00,41.3,32.2,30.06,WNW,297,3.0,4.0,70,0.00,,,0.00,0,HR-IXPWINDi_r2_v1.2.,2013-02-26 07:36:00,
2013-02-25 23:41:00,40.8,32.1,30.07,WNW,298,1.0,3.0,71,0.00,,,0.00,0,HR-IXPWINDi_r2_v1.2.,2013-02-26 07:41:00,
2013-02-25 23:46:00,40.5,32.2,30.07,NW,310,1.0,3.0,72,0.00,,,0.00,0,HR-IXPWINDi_r2_v1.2.,2013-02-26 07:46:00,
2013-02-25 23:51:00,40.9,31.8,30.06,NNW,330,0.0,4.0,70,0.00,,,0.00,0,HR-IXPWINDi_r2_v1.2.,2013-02-26 07:51:00,
2013-02-25 23:57:00,40.5,31.8,30.06,NW,324,2.0,4.0,71,0.00,,,0.00,0,HR-IXPWINDi_r2_v1.2.,2013-02-26 07:57:00,